Terminal Aerodrome Forecast
Issued by NWS Boston, MA

Home | Current Version | Previous Version | Text Only | Print | Product List | Glossary Off
Versions: 1 2 3 4 5 6 7 8 9 10 11 12 13 14 15 16 17 18 19 20 21 22 23 24
000 FTUS41 KBOX 242030 AAA TAFPVD TAF AMD KPVD 242030Z 2421/2518 33010KT P6SM OVC025 FM250000 33009KT P6SM BKN030 FM250300 32006KT P6SM BKN045 FM250700 32005KT P6SM SCT120=

USA.gov is the U.S. government's official web portal to all federal, state and local government web resources and services.